sensor_id;sensor_type;location;lat;lon;timestamp;P1;durP1;ratioP1;P2;durP2;ratioP2
12267;SDS011;6196;48.398;11.736;2023-04-29T00:01:21;2.67;;;1.20;;
12267;SDS011;6196;48.398;11.736;2023-04-29T00:03:48;2.27;;;1.17;;
12267;SDS011;6196;48.398;11.736;2023-04-29T00:06:15;1.63;;;1.10;;
12267;SDS011;6196;48.398;11.736;2023-04-29T00:08:42;1.27;;;1.13;;
12267;SDS011;6196;48.398;11.736;2023-04-29T00:11:09;2.10;;;1.30;;
12267;SDS011;6196;48.398;11.736;2023-04-29T00:13:36;2.40;;;1.10;;
12267;SDS011;6196;48.398;11.736;2023-04-29T00:16:06;1.53;;;1.00;;
12267;SDS011;6196;48.398;11.736;2023-04-29T00:18:35;1.77;;;0.87;;
12267;SDS011;6196;48.398;11.736;2023-04-29T00:21:03;0.90;;;0.80;;
12267;SDS011;6196;48.398;11.736;2023-04-29T00:23:33;0.80;;;0.80;;
12267;SDS011;6196;48.398;11.736;2023-04-29T00:25:59;1.27;;;1.00;;
12267;SDS011;6196;48.398;11.736;2023-04-29T00:28:26;1.93;;;0.90;;
12267;SDS011;6196;48.398;11.736;2023-04-29T00:30:53;0.87;;;0.70;;
12267;SDS011;6196;48.398;11.736;2023-04-29T00:33:21;1.93;;;0.70;;
12267;SDS011;6196;48.398;11.736;2023-04-29T00:35:48;0.90;;;0.70;;
12267;SDS011;6196;48.398;11.736;2023-04-29T00:38:15;1.97;;;0.80;;
12267;SDS011;6196;48.398;11.736;2023-04-29T00:40:43;1.33;;;0.70;;
12267;SDS011;6196;48.398;11.736;2023-04-29T00:43:10;1.23;;;0.70;;
12267;SDS011;6196;48.398;11.736;2023-04-29T00:45:36;1.50;;;0.73;;
12267;SDS011;6196;48.398;11.736;2023-04-29T00:48:03;1.63;;;0.80;;
12267;SDS011;6196;48.398;11.736;2023-04-29T00:50:30;0.80;;;0.80;;
12267;SDS011;6196;48.398;11.736;2023-04-29T00:52:57;1.73;;;0.70;;
12267;SDS011;6196;48.398;11.736;2023-04-29T00:55:25;0.70;;;0.70;;
12267;SDS011;6196;48.398;11.736;2023-04-29T00:57:52;1.37;;;0.90;;
12267;SDS011;6196;48.398;11.736;2023-04-29T01:00:19;0.60;;;0.60;;
12267;SDS011;6196;48.398;11.736;2023-04-29T01:02:46;1.77;;;1.03;;
12267;SDS011;6196;48.398;11.736;2023-04-29T01:05:15;1.00;;;0.70;;
12267;SDS011;6196;48.398;11.736;2023-04-29T01:07:50;0.63;;;0.63;;
12267;SDS011;6196;48.398;11.736;2023-04-29T01:13:58;1.37;;;0.73;;
12267;SDS011;6196;48.398;11.736;2023-04-29T01:16:46;0.60;;;0.57;;
12267;SDS011;6196;48.398;11.736;2023-04-29T01:22:03;2.90;;;0.60;;
12267;SDS011;6196;48.398;11.736;2023-04-29T01:24:30;0.70;;;0.50;;
12267;SDS011;6196;48.398;11.736;2023-04-29T01:39:26;0.80;;;0.77;;
12267;SDS011;6196;48.398;11.736;2023-04-29T01:42:17;0.83;;;0.70;;
12267;SDS011;6196;48.398;11.736;2023-04-29T01:45:07;0.77;;;0.77;;
12267;SDS011;6196;48.398;11.736;2023-04-29T01:47:36;1.20;;;0.80;;
12267;SDS011;6196;48.398;11.736;2023-04-29T01:50:04;0.80;;;0.67;;
12267;SDS011;6196;48.398;11.736;2023-04-29T01:52:32;0.70;;;0.70;;
12267;SDS011;6196;48.398;11.736;2023-04-29T01:54:58;0.70;;;0.70;;
12267;SDS011;6196;48.398;11.736;2023-04-29T01:57:26;0.80;;;0.70;;
12267;SDS011;6196;48.398;11.736;2023-04-29T01:59:52;1.17;;;0.90;;
12267;SDS011;6196;48.398;11.736;2023-04-29T02:02:20;1.90;;;0.90;;
12267;SDS011;6196;48.398;11.736;2023-04-29T02:04:48;2.00;;;0.87;;
12267;SDS011;6196;48.398;11.736;2023-04-29T02:07:16;2.00;;;0.80;;
12267;SDS011;6196;48.398;11.736;2023-04-29T02:09:42;0.90;;;0.80;;
12267;SDS011;6196;48.398;11.736;2023-04-29T02:12:09;1.10;;;1.00;;
12267;SDS011;6196;48.398;11.736;2023-04-29T02:14:36;1.87;;;1.00;;
12267;SDS011;6196;48.398;11.736;2023-04-29T02:17:03;0.77;;;0.77;;
12267;SDS011;6196;48.398;11.736;2023-04-29T02:19:30;1.00;;;1.00;;
12267;SDS011;6196;48.398;11.736;2023-04-29T02:21:57;2.23;;;0.90;;
12267;SDS011;6196;48.398;11.736;2023-04-29T02:24:24;0.80;;;0.70;;
12267;SDS011;6196;48.398;11.736;2023-04-29T02:26:51;0.93;;;0.70;;
12267;SDS011;6196;48.398;11.736;2023-04-29T02:29:18;1.17;;;0.90;;
12267;SDS011;6196;48.398;11.736;2023-04-29T02:31:45;1.10;;;1.00;;
12267;SDS011;6196;48.398;11.736;2023-04-29T02:34:12;2.77;;;0.83;;
12267;SDS011;6196;48.398;11.736;2023-04-29T02:36:39;1.30;;;1.10;;
12267;SDS011;6196;48.398;11.736;2023-04-29T02:39:06;1.07;;;0.97;;
12267;SDS011;6196;48.398;11.736;2023-04-29T02:41:33;2.30;;;1.10;;
12267;SDS011;6196;48.398;11.736;2023-04-29T02:44:00;1.20;;;1.10;;
12267;SDS011;6196;48.398;11.736;2023-04-29T02:46:26;2.63;;;1.50;;
12267;SDS011;6196;48.398;11.736;2023-04-29T02:48:54;1.40;;;1.20;;
12267;SDS011;6196;48.398;11.736;2023-04-29T02:51:21;1.00;;;1.00;;
12267;SDS011;6196;48.398;11.736;2023-04-29T02:53:47;1.23;;;1.13;;
12267;SDS011;6196;48.398;11.736;2023-04-29T02:56:14;2.20;;;1.20;;
12267;SDS011;6196;48.398;11.736;2023-04-29T02:58:41;1.30;;;1.20;;
12267;SDS011;6196;48.398;11.736;2023-04-29T03:01:08;1.33;;;1.23;;
12267;SDS011;6196;48.398;11.736;2023-04-29T03:03:36;2.33;;;1.20;;
12267;SDS011;6196;48.398;11.736;2023-04-29T03:06:03;1.43;;;1.33;;
12267;SDS011;6196;48.398;11.736;2023-04-29T03:08:30;1.57;;;1.27;;
12267;SDS011;6196;48.398;11.736;2023-04-29T03:10:57;1.40;;;1.27;;
12267;SDS011;6196;48.398;11.736;2023-04-29T03:13:25;3.50;;;1.60;;
12267;SDS011;6196;48.398;11.736;2023-04-29T03:15:52;1.70;;;1.60;;
12267;SDS011;6196;48.398;11.736;2023-04-29T03:18:19;1.60;;;1.30;;
12267;SDS011;6196;48.398;11.736;2023-04-29T03:20:45;1.60;;;1.50;;
12267;SDS011;6196;48.398;11.736;2023-04-29T03:23:12;1.57;;;1.47;;
12267;SDS011;6196;48.398;11.736;2023-04-29T03:25:39;2.20;;;1.50;;
12267;SDS011;6196;48.398;11.736;2023-04-29T03:28:06;3.10;;;1.60;;
12267;SDS011;6196;48.398;11.736;2023-04-29T03:30:33;1.87;;;1.60;;
12267;SDS011;6196;48.398;11.736;2023-04-29T03:33:00;1.87;;;1.73;;
12267;SDS011;6196;48.398;11.736;2023-04-29T03:35:27;1.70;;;1.50;;
12267;SDS011;6196;48.398;11.736;2023-04-29T03:37:54;2.00;;;1.80;;
12267;SDS011;6196;48.398;11.736;2023-04-29T03:40:21;2.27;;;1.80;;
12267;SDS011;6196;48.398;11.736;2023-04-29T03:42:48;2.90;;;2.10;;
12267;SDS011;6196;48.398;11.736;2023-04-29T03:45:15;2.00;;;1.90;;
12267;SDS011;6196;48.398;11.736;2023-04-29T03:47:42;2.40;;;1.83;;
12267;SDS011;6196;48.398;11.736;2023-04-29T03:50:09;2.40;;;1.83;;
12267;SDS011;6196;48.398;11.736;2023-04-29T03:52:37;1.90;;;1.80;;
12267;SDS011;6196;48.398;11.736;2023-04-29T03:55:04;2.93;;;2.30;;
12267;SDS011;6196;48.398;11.736;2023-04-29T03:57:31;2.73;;;2.17;;
12267;SDS011;6196;48.398;11.736;2023-04-29T03:59:58;2.70;;;2.50;;
12267;SDS011;6196;48.398;11.736;2023-04-29T04:02:24;3.03;;;2.73;;
12267;SDS011;6196;48.398;11.736;2023-04-29T04:04:52;3.07;;;2.77;;
12267;SDS011;6196;48.398;11.736;2023-04-29T04:07:20;2.87;;;2.50;;
12267;SDS011;6196;48.398;11.736;2023-04-29T04:09:47;3.40;;;3.10;;
12267;SDS011;6196;48.398;11.736;2023-04-29T04:12:14;3.37;;;3.07;;
12267;SDS011;6196;48.398;11.736;2023-04-29T04:14:41;3.20;;;2.90;;
12267;SDS011;6196;48.398;11.736;2023-04-29T04:17:08;3.70;;;3.10;;
12267;SDS011;6196;48.398;11.736;2023-04-29T04:19:35;3.20;;;2.90;;
12267;SDS011;6196;48.398;11.736;2023-04-29T04:22:02;3.30;;;3.00;;
12267;SDS011;6196;48.398;11.736;2023-04-29T04:24:29;3.43;;;2.80;;
12267;SDS011;6196;48.398;11.736;2023-04-29T04:26:56;2.83;;;2.63;;
12267;SDS011;6196;48.398;11.736;2023-04-29T04:29:23;3.07;;;2.77;;
12267;SDS011;6196;48.398;11.736;2023-04-29T04:31:50;3.50;;;3.20;;
12267;SDS011;6196;48.398;11.736;2023-04-29T04:34:17;3.87;;;2.93;;
12267;SDS011;6196;48.398;11.736;2023-04-29T04:36:44;3.77;;;3.03;;
12267;SDS011;6196;48.398;11.736;2023-04-29T04:39:11;3.63;;;3.33;;
12267;SDS011;6196;48.398;11.736;2023-04-29T04:41:38;3.57;;;3.27;;
12267;SDS011;6196;48.398;11.736;2023-04-29T04:44:05;3.47;;;3.20;;
12267;SDS011;6196;48.398;11.736;2023-04-29T04:46:32;3.53;;;3.23;;
12267;SDS011;6196;48.398;11.736;2023-04-29T04:49:00;4.73;;;3.97;;
12267;SDS011;6196;48.398;11.736;2023-04-29T04:51:26;4.37;;;3.97;;
12267;SDS011;6196;48.398;11.736;2023-04-29T04:53:56;4.83;;;4.33;;
12267;SDS011;6196;48.398;11.736;2023-04-29T04:56:23;5.17;;;4.40;;
12267;SDS011;6196;48.398;11.736;2023-04-29T04:58:50;4.63;;;4.20;;
12267;SDS011;6196;48.398;11.736;2023-04-29T05:01:16;6.27;;;4.63;;
12267;SDS011;6196;48.398;11.736;2023-04-29T05:03:43;4.73;;;4.33;;
12267;SDS011;6196;48.398;11.736;2023-04-29T05:06:11;5.03;;;4.30;;
12267;SDS011;6196;48.398;11.736;2023-04-29T05:08:38;5.30;;;4.10;;
12267;SDS011;6196;48.398;11.736;2023-04-29T05:11:04;4.93;;;4.27;;
12267;SDS011;6196;48.398;11.736;2023-04-29T05:13:32;4.60;;;4.20;;
12267;SDS011;6196;48.398;11.736;2023-04-29T05:16:01;3.93;;;3.63;;
12267;SDS011;6196;48.398;11.736;2023-04-29T05:18:31;5.23;;;4.73;;
12267;SDS011;6196;48.398;11.736;2023-04-29T05:20:58;4.90;;;4.50;;
12267;SDS011;6196;48.398;11.736;2023-04-29T05:23:25;4.27;;;3.87;;
12267;SDS011;6196;48.398;11.736;2023-04-29T05:25:53;4.90;;;4.40;;
12267;SDS011;6196;48.398;11.736;2023-04-29T05:28:20;5.07;;;4.67;;
12267;SDS011;6196;48.398;11.736;2023-04-29T05:30:49;6.23;;;4.37;;
12267;SDS011;6196;48.398;11.736;2023-04-29T05:33:17;4.40;;;4.10;;
12267;SDS011;6196;48.398;11.736;2023-04-29T05:35:44;4.70;;;4.30;;
12267;SDS011;6196;48.398;11.736;2023-04-29T05:38:11;4.50;;;3.90;;
12267;SDS011;6196;48.398;11.736;2023-04-29T05:40:38;4.40;;;4.00;;
12267;SDS011;6196;48.398;11.736;2023-04-29T05:43:05;4.50;;;4.10;;
12267;SDS011;6196;48.398;11.736;2023-04-29T05:45:32;4.80;;;4.00;;
12267;SDS011;6196;48.398;11.736;2023-04-29T05:47:59;4.13;;;3.73;;
12267;SDS011;6196;48.398;11.736;2023-04-29T05:50:26;3.87;;;3.57;;
12267;SDS011;6196;48.398;11.736;2023-04-29T05:52:53;4.20;;;3.77;;
12267;SDS011;6196;48.398;11.736;2023-04-29T05:55:21;3.53;;;3.23;;
12267;SDS011;6196;48.398;11.736;2023-04-29T05:57:49;4.20;;;3.30;;
12267;SDS011;6196;48.398;11.736;2023-04-29T06:00:15;3.60;;;3.30;;
12267;SDS011;6196;48.398;11.736;2023-04-29T06:02:42;5.00;;;3.57;;
12267;SDS011;6196;48.398;11.736;2023-04-29T06:05:24;4.67;;;3.53;;
12267;SDS011;6196;48.398;11.736;2023-04-29T06:07:52;4.10;;;3.80;;
12267;SDS011;6196;48.398;11.736;2023-04-29T06:10:19;5.37;;;3.70;;
12267;SDS011;6196;48.398;11.736;2023-04-29T06:12:46;3.73;;;3.40;;
12267;SDS011;6196;48.398;11.736;2023-04-29T06:15:16;4.30;;;3.90;;
12267;SDS011;6196;48.398;11.736;2023-04-29T06:17:43;4.83;;;4.17;;
12267;SDS011;6196;48.398;11.736;2023-04-29T06:20:10;4.63;;;4.23;;
12267;SDS011;6196;48.398;11.736;2023-04-29T06:22:37;4.50;;;4.10;;
12267;SDS011;6196;48.398;11.736;2023-04-29T06:25:04;4.90;;;4.50;;
12267;SDS011;6196;48.398;11.736;2023-04-29T06:27:31;5.87;;;5.37;;
12267;SDS011;6196;48.398;11.736;2023-04-29T06:29:58;5.43;;;4.93;;
12267;SDS011;6196;48.398;11.736;2023-04-29T06:32:25;5.03;;;4.63;;
12267;SDS011;6196;48.398;11.736;2023-04-29T06:34:52;5.27;;;4.87;;
12267;SDS011;6196;48.398;11.736;2023-04-29T06:37:19;7.10;;;4.90;;
12267;SDS011;6196;48.398;11.736;2023-04-29T06:39:46;6.57;;;6.07;;
12267;SDS011;6196;48.398;11.736;2023-04-29T06:42:13;6.20;;;5.60;;
12267;SDS011;6196;48.398;11.736;2023-04-29T06:44:40;6.70;;;6.10;;
12267;SDS011;6196;48.398;11.736;2023-04-29T06:47:07;6.73;;;6.17;;
12267;SDS011;6196;48.398;11.736;2023-04-29T06:49:33;6.83;;;6.10;;
12267;SDS011;6196;48.398;11.736;2023-04-29T06:52:00;5.77;;;5.27;;
12267;SDS011;6196;48.398;11.736;2023-04-29T06:54:27;6.73;;;6.23;;
12267;SDS011;6196;48.398;11.736;2023-04-29T06:56:54;6.57;;;6.07;;
12267;SDS011;6196;48.398;11.736;2023-04-29T06:59:23;7.00;;;6.40;;
12267;SDS011;6196;48.398;11.736;2023-04-29T07:01:50;8.33;;;6.57;;
12267;SDS011;6196;48.398;11.736;2023-04-29T07:04:17;6.27;;;5.77;;
12267;SDS011;6196;48.398;11.736;2023-04-29T07:06:44;6.70;;;6.00;;
12267;SDS011;6196;48.398;11.736;2023-04-29T07:09:12;6.17;;;5.67;;
12267;SDS011;6196;48.398;11.736;2023-04-29T07:11:40;6.53;;;6.03;;
12267;SDS011;6196;48.398;11.736;2023-04-29T07:14:07;5.83;;;5.23;;
12267;SDS011;6196;48.398;11.736;2023-04-29T07:16:34;6.27;;;5.77;;
12267;SDS011;6196;48.398;11.736;2023-04-29T07:19:01;6.07;;;5.57;;
12267;SDS011;6196;48.398;11.736;2023-04-29T07:21:28;6.73;;;6.13;;
12267;SDS011;6196;48.398;11.736;2023-04-29T07:23:56;7.40;;;6.70;;
12267;SDS011;6196;48.398;11.736;2023-04-29T07:26:25;7.00;;;6.30;;
12267;SDS011;6196;48.398;11.736;2023-04-29T07:28:53;7.40;;;6.17;;
12267;SDS011;6196;48.398;11.736;2023-04-29T07:31:19;6.80;;;6.20;;
12267;SDS011;6196;48.398;11.736;2023-04-29T07:33:47;6.27;;;5.77;;
12267;SDS011;6196;48.398;11.736;2023-04-29T07:36:14;5.73;;;5.07;;
12267;SDS011;6196;48.398;11.736;2023-04-29T07:38:45;5.77;;;5.23;;
12267;SDS011;6196;48.398;11.736;2023-04-29T07:41:11;5.30;;;4.80;;
12267;SDS011;6196;48.398;11.736;2023-04-29T07:43:38;6.00;;;5.50;;
12267;SDS011;6196;48.398;11.736;2023-04-29T07:46:07;5.77;;;5.27;;
12267;SDS011;6196;48.398;11.736;2023-04-29T07:48:37;4.77;;;4.27;;
12267;SDS011;6196;48.398;11.736;2023-04-29T07:51:04;5.50;;;5.00;;
12267;SDS011;6196;48.398;11.736;2023-04-29T07:53:31;4.83;;;4.43;;
12267;SDS011;6196;48.398;11.736;2023-04-29T07:55:58;5.37;;;4.40;;
12267;SDS011;6196;48.398;11.736;2023-04-29T07:58:32;5.20;;;4.70;;
12267;SDS011;6196;48.398;11.736;2023-04-29T08:01:09;4.83;;;4.40;;
12267;SDS011;6196;48.398;11.736;2023-04-29T08:03:37;4.73;;;4.33;;
12267;SDS011;6196;48.398;11.736;2023-04-29T08:06:07;4.80;;;4.40;;
12267;SDS011;6196;48.398;11.736;2023-04-29T08:08:34;4.00;;;3.60;;
12267;SDS011;6196;48.398;11.736;2023-04-29T08:11:01;3.87;;;3.47;;
12267;SDS011;6196;48.398;11.736;2023-04-29T08:13:28;3.90;;;3.60;;
12267;SDS011;6196;48.398;11.736;2023-04-29T08:15:55;3.73;;;3.43;;
12267;SDS011;6196;48.398;11.736;2023-04-29T08:18:22;3.50;;;3.20;;
12267;SDS011;6196;48.398;11.736;2023-04-29T08:20:49;3.47;;;3.17;;
12267;SDS011;6196;48.398;11.736;2023-04-29T08:23:16;3.90;;;3.03;;
12267;SDS011;6196;48.398;11.736;2023-04-29T08:25:43;3.63;;;3.33;;
12267;SDS011;6196;48.398;11.736;2023-04-29T08:28:10;3.40;;;3.10;;
12267;SDS011;6196;48.398;11.736;2023-04-29T08:30:40;4.27;;;2.53;;
12267;SDS011;6196;48.398;11.736;2023-04-29T08:33:07;2.73;;;2.53;;
12267;SDS011;6196;48.398;11.736;2023-04-29T08:35:34;2.83;;;2.27;;
12267;SDS011;6196;48.398;11.736;2023-04-29T08:38:04;2.83;;;2.30;;
12267;SDS011;6196;48.398;11.736;2023-04-29T08:40:35;3.43;;;2.30;;
12267;SDS011;6196;48.398;11.736;2023-04-29T08:43:08;2.37;;;2.17;;
12267;SDS011;6196;48.398;11.736;2023-04-29T08:45:35;2.47;;;2.27;;
12267;SDS011;6196;48.398;11.736;2023-04-29T08:48:06;2.60;;;2.40;;
12267;SDS011;6196;48.398;11.736;2023-04-29T08:50:35;3.53;;;2.43;;
12267;SDS011;6196;48.398;11.736;2023-04-29T08:53:06;2.40;;;2.20;;
12267;SDS011;6196;48.398;11.736;2023-04-29T08:55:35;3.07;;;2.10;;
12267;SDS011;6196;48.398;11.736;2023-04-29T08:58:09;2.40;;;1.70;;
12267;SDS011;6196;48.398;11.736;2023-04-29T09:00:38;2.73;;;2.00;;
12267;SDS011;6196;48.398;11.736;2023-04-29T09:03:20;2.40;;;2.20;;
12267;SDS011;6196;48.398;11.736;2023-04-29T09:06:00;2.10;;;1.90;;
12267;SDS011;6196;48.398;11.736;2023-04-29T09:08:28;2.60;;;1.87;;
12267;SDS011;6196;48.398;11.736;2023-04-29T09:10:55;3.60;;;2.07;;
12267;SDS011;6196;48.398;11.736;2023-04-29T09:13:30;2.63;;;2.07;;
12267;SDS011;6196;48.398;11.736;2023-04-29T09:15:58;2.37;;;1.77;;
12267;SDS011;6196;48.398;11.736;2023-04-29T09:18:41;2.60;;;1.70;;
12267;SDS011;6196;48.398;11.736;2023-04-29T09:21:20;2.37;;;1.80;;
12267;SDS011;6196;48.398;11.736;2023-04-29T09:23:57;1.73;;;1.63;;
12267;SDS011;6196;48.398;11.736;2023-04-29T09:26:27;3.47;;;1.60;;
12267;SDS011;6196;48.398;11.736;2023-04-29T09:29:08;2.27;;;1.60;;
12267;SDS011;6196;48.398;11.736;2023-04-29T09:31:43;2.13;;;1.60;;
12267;SDS011;6196;48.398;11.736;2023-04-29T09:34:11;2.33;;;1.50;;
12267;SDS011;6196;48.398;11.736;2023-04-29T09:36:43;2.10;;;1.60;;
12267;SDS011;6196;48.398;11.736;2023-04-29T09:44:21;1.40;;;1.30;;
12267;SDS011;6196;48.398;11.736;2023-04-29T09:46:59;1.53;;;1.20;;
12267;SDS011;6196;48.398;11.736;2023-04-29T09:49:32;1.80;;;1.33;;
12267;SDS011;6196;48.398;11.736;2023-04-29T09:52:08;2.90;;;1.37;;
12267;SDS011;6196;48.398;11.736;2023-04-29T09:54:38;1.90;;;1.30;;
12267;SDS011;6196;48.398;11.736;2023-04-29T09:57:08;3.50;;;1.50;;
12267;SDS011;6196;48.398;11.736;2023-04-29T09:59:37;1.70;;;1.60;;
12267;SDS011;6196;48.398;11.736;2023-04-29T10:02:09;1.60;;;1.50;;
12267;SDS011;6196;48.398;11.736;2023-04-29T10:04:47;1.50;;;1.40;;
12267;SDS011;6196;48.398;11.736;2023-04-29T10:07:23;1.80;;;1.60;;
12267;SDS011;6196;48.398;11.736;2023-04-29T10:09:52;2.33;;;1.50;;
12267;SDS011;6196;48.398;11.736;2023-04-29T10:12:20;2.53;;;1.60;;
12267;SDS011;6196;48.398;11.736;2023-04-29T10:14:57;1.30;;;1.20;;
12267;SDS011;6196;48.398;11.736;2023-04-29T10:18:17;1.53;;;1.27;;
12267;SDS011;6196;48.398;11.736;2023-04-29T10:20:47;2.33;;;1.47;;
12267;SDS011;6196;48.398;11.736;2023-04-29T10:23:14;2.80;;;1.30;;
12267;SDS011;6196;48.398;11.736;2023-04-29T10:25:45;1.30;;;1.20;;
12267;SDS011;6196;48.398;11.736;2023-04-29T10:28:14;2.40;;;1.40;;
12267;SDS011;6196;48.398;11.736;2023-04-29T10:30:44;1.80;;;1.23;;
12267;SDS011;6196;48.398;11.736;2023-04-29T10:33:17;4.90;;;1.40;;
12267;SDS011;6196;48.398;11.736;2023-04-29T10:35:44;1.43;;;1.30;;
12267;SDS011;6196;48.398;11.736;2023-04-29T10:38:15;3.03;;;1.20;;
12267;SDS011;6196;48.398;11.736;2023-04-29T10:40:56;1.40;;;1.30;;
12267;SDS011;6196;48.398;11.736;2023-04-29T10:43:25;2.17;;;1.10;;
12267;SDS011;6196;48.398;11.736;2023-04-29T10:48:48;1.80;;;1.10;;
12267;SDS011;6196;48.398;11.736;2023-04-29T10:51:27;1.33;;;1.07;;
12267;SDS011;6196;48.398;11.736;2023-04-29T10:54:14;1.70;;;1.10;;
12267;SDS011;6196;48.398;11.736;2023-04-29T10:56:47;1.37;;;1.27;;
12267;SDS011;6196;48.398;11.736;2023-04-29T10:59:20;1.37;;;1.20;;
12267;SDS011;6196;48.398;11.736;2023-04-29T11:02:08;2.47;;;1.20;;
12267;SDS011;6196;48.398;11.736;2023-04-29T11:05:04;2.90;;;1.13;;
12267;SDS011;6196;48.398;11.736;2023-04-29T11:07:35;1.27;;;1.03;;
12267;SDS011;6196;48.398;11.736;2023-04-29T11:10:02;1.07;;;0.80;;
12267;SDS011;6196;48.398;11.736;2023-04-29T11:12:30;1.13;;;1.03;;
12267;SDS011;6196;48.398;11.736;2023-04-29T11:14:57;1.20;;;0.90;;
12267;SDS011;6196;48.398;11.736;2023-04-29T11:17:36;2.07;;;0.90;;
12267;SDS011;6196;48.398;11.736;2023-04-29T11:20:05;1.87;;;1.10;;
12267;SDS011;6196;48.398;11.736;2023-04-29T11:22:39;1.03;;;0.90;;
12267;SDS011;6196;48.398;11.736;2023-04-29T11:25:16;3.97;;;0.97;;
12267;SDS011;6196;48.398;11.736;2023-04-29T11:27:44;1.53;;;0.97;;
12267;SDS011;6196;48.398;11.736;2023-04-29T11:30:13;1.93;;;1.10;;
12267;SDS011;6196;48.398;11.736;2023-04-29T11:32:41;3.13;;;1.10;;
12267;SDS011;6196;48.398;11.736;2023-04-29T11:35:10;1.03;;;0.93;;
12267;SDS011;6196;48.398;11.736;2023-04-29T11:37:42;0.90;;;0.83;;
12267;SDS011;6196;48.398;11.736;2023-04-29T11:40:11;1.20;;;0.90;;
12267;SDS011;6196;48.398;11.736;2023-04-29T11:42:45;2.30;;;0.87;;
12267;SDS011;6196;48.398;11.736;2023-04-29T11:45:15;1.73;;;1.07;;
12267;SDS011;6196;48.398;11.736;2023-04-29T11:47:44;1.93;;;1.10;;
12267;SDS011;6196;48.398;11.736;2023-04-29T11:50:12;1.17;;;1.07;;
12267;SDS011;6196;48.398;11.736;2023-04-29T11:52:46;1.17;;;1.10;;
12267;SDS011;6196;48.398;11.736;2023-04-29T11:55:14;1.90;;;1.00;;
12267;SDS011;6196;48.398;11.736;2023-04-29T11:57:41;1.10;;;0.97;;
12267;SDS011;6196;48.398;11.736;2023-04-29T12:00:09;0.80;;;0.80;;
12267;SDS011;6196;48.398;11.736;2023-04-29T12:02:43;2.40;;;0.90;;
12267;SDS011;6196;48.398;11.736;2023-04-29T12:05:14;1.07;;;0.80;;
12267;SDS011;6196;48.398;11.736;2023-04-29T12:07:42;2.70;;;1.00;;
12267;SDS011;6196;48.398;11.736;2023-04-29T12:10:10;1.30;;;1.20;;
12267;SDS011;6196;48.398;11.736;2023-04-29T12:12:40;0.80;;;0.80;;
12267;SDS011;6196;48.398;11.736;2023-04-29T12:15:11;1.40;;;1.20;;
12267;SDS011;6196;48.398;11.736;2023-04-29T12:17:39;1.07;;;0.97;;
12267;SDS011;6196;48.398;11.736;2023-04-29T12:20:08;1.20;;;1.10;;
12267;SDS011;6196;48.398;11.736;2023-04-29T12:22:37;0.90;;;0.80;;
12267;SDS011;6196;48.398;11.736;2023-04-29T12:25:04;1.10;;;1.07;;
12267;SDS011;6196;48.398;11.736;2023-04-29T12:27:33;2.60;;;0.90;;
12267;SDS011;6196;48.398;11.736;2023-04-29T12:30:01;0.80;;;0.80;;
12267;SDS011;6196;48.398;11.736;2023-04-29T12:32:35;1.40;;;1.00;;
12267;SDS011;6196;48.398;11.736;2023-04-29T12:35:02;0.97;;;0.83;;
12267;SDS011;6196;48.398;11.736;2023-04-29T12:37:29;1.73;;;1.00;;
12267;SDS011;6196;48.398;11.736;2023-04-29T12:39:56;0.90;;;0.90;;
12267;SDS011;6196;48.398;11.736;2023-04-29T12:42:23;1.93;;;1.10;;
12267;SDS011;6196;48.398;11.736;2023-04-29T12:44:58;1.20;;;1.10;;
12267;SDS011;6196;48.398;11.736;2023-04-29T12:47:30;1.30;;;0.90;;
12267;SDS011;6196;48.398;11.736;2023-04-29T12:50:02;0.97;;;0.90;;
12267;SDS011;6196;48.398;11.736;2023-04-29T12:52:32;0.90;;;0.90;;
12267;SDS011;6196;48.398;11.736;2023-04-29T12:55:01;1.30;;;1.20;;
12267;SDS011;6196;48.398;11.736;2023-04-29T12:57:29;1.30;;;0.90;;
12267;SDS011;6196;48.398;11.736;2023-04-29T12:59:56;2.67;;;1.00;;
12267;SDS011;6196;48.398;11.736;2023-04-29T13:02:23;1.80;;;0.90;;
12267;SDS011;6196;48.398;11.736;2023-04-29T13:04:51;0.97;;;0.87;;
12267;SDS011;6196;48.398;11.736;2023-04-29T13:07:18;2.00;;;0.80;;
12267;SDS011;6196;48.398;11.736;2023-04-29T13:09:46;2.90;;;0.77;;
12267;SDS011;6196;48.398;11.736;2023-04-29T13:12:13;1.77;;;0.70;;
12267;SDS011;6196;48.398;11.736;2023-04-29T13:14:39;0.83;;;0.73;;
12267;SDS011;6196;48.398;11.736;2023-04-29T13:17:06;0.80;;;0.80;;
12267;SDS011;6196;48.398;11.736;2023-04-29T13:19:33;1.57;;;0.77;;
12267;SDS011;6196;48.398;11.736;2023-04-29T13:22:04;1.10;;;1.00;;
12267;SDS011;6196;48.398;11.736;2023-04-29T13:24:31;0.80;;;0.80;;
12267;SDS011;6196;48.398;11.736;2023-04-29T13:27:01;2.70;;;0.90;;
12267;SDS011;6196;48.398;11.736;2023-04-29T13:29:31;1.10;;;1.00;;
12267;SDS011;6196;48.398;11.736;2023-04-29T13:31:58;1.83;;;1.13;;
12267;SDS011;6196;48.398;11.736;2023-04-29T13:34:24;1.97;;;1.70;;
12267;SDS011;6196;48.398;11.736;2023-04-29T13:36:51;1.80;;;1.70;;
12267;SDS011;6196;48.398;11.736;2023-04-29T13:39:18;1.80;;;1.40;;
12267;SDS011;6196;48.398;11.736;2023-04-29T13:41:48;1.70;;;1.50;;
12267;SDS011;6196;48.398;11.736;2023-04-29T13:44:15;2.27;;;1.40;;
12267;SDS011;6196;48.398;11.736;2023-04-29T13:46:54;1.83;;;1.60;;
12267;SDS011;6196;48.398;11.736;2023-04-29T13:49:21;3.07;;;1.80;;
12267;SDS011;6196;48.398;11.736;2023-04-29T13:52:07;1.70;;;1.60;;
12267;SDS011;6196;48.398;11.736;2023-04-29T13:54:58;1.43;;;1.33;;
12267;SDS011;6196;48.398;11.736;2023-04-29T13:57:44;1.90;;;1.37;;
12267;SDS011;6196;48.398;11.736;2023-04-29T14:00:14;2.27;;;1.77;;
12267;SDS011;6196;48.398;11.736;2023-04-29T14:03:02;2.33;;;1.40;;
12267;SDS011;6196;48.398;11.736;2023-04-29T14:05:30;1.53;;;1.40;;
12267;SDS011;6196;48.398;11.736;2023-04-29T14:07:57;1.47;;;1.10;;
12267;SDS011;6196;48.398;11.736;2023-04-29T14:10:24;2.13;;;1.30;;
12267;SDS011;6196;48.398;11.736;2023-04-29T14:12:51;2.10;;;1.10;;
12267;SDS011;6196;48.398;11.736;2023-04-29T14:15:18;1.00;;;1.00;;
12267;SDS011;6196;48.398;11.736;2023-04-29T14:17:45;1.50;;;1.10;;
12267;SDS011;6196;48.398;11.736;2023-04-29T14:20:15;1.93;;;1.10;;
12267;SDS011;6196;48.398;11.736;2023-04-29T14:22:42;1.27;;;1.17;;
12267;SDS011;6196;48.398;11.736;2023-04-29T14:25:09;1.60;;;1.40;;
12267;SDS011;6196;48.398;11.736;2023-04-29T14:27:37;1.20;;;1.10;;
12267;SDS011;6196;48.398;11.736;2023-04-29T14:30:04;1.63;;;1.30;;
12267;SDS011;6196;48.398;11.736;2023-04-29T14:32:32;1.20;;;1.00;;
12267;SDS011;6196;48.398;11.736;2023-04-29T14:34:59;1.97;;;1.00;;
12267;SDS011;6196;48.398;11.736;2023-04-29T14:37:26;1.00;;;1.00;;
12267;SDS011;6196;48.398;11.736;2023-04-29T14:39:53;1.20;;;1.10;;
12267;SDS011;6196;48.398;11.736;2023-04-29T14:42:20;1.27;;;1.17;;
12267;SDS011;6196;48.398;11.736;2023-04-29T14:44:46;2.40;;;1.10;;
12267;SDS011;6196;48.398;11.736;2023-04-29T14:47:13;1.00;;;1.00;;
12267;SDS011;6196;48.398;11.736;2023-04-29T14:49:40;1.33;;;1.10;;
12267;SDS011;6196;48.398;11.736;2023-04-29T14:52:07;2.27;;;1.30;;
12267;SDS011;6196;48.398;11.736;2023-04-29T14:54:34;1.20;;;1.10;;
12267;SDS011;6196;48.398;11.736;2023-04-29T14:57:01;1.80;;;1.70;;
12267;SDS011;6196;48.398;11.736;2023-04-29T14:59:28;1.43;;;1.30;;
12267;SDS011;6196;48.398;11.736;2023-04-29T15:01:56;1.60;;;1.50;;
12267;SDS011;6196;48.398;11.736;2023-04-29T15:04:23;3.17;;;1.70;;
12267;SDS011;6196;48.398;11.736;2023-04-29T15:06:50;1.70;;;1.60;;
12267;SDS011;6196;48.398;11.736;2023-04-29T15:09:17;2.70;;;2.10;;
12267;SDS011;6196;48.398;11.736;2023-04-29T15:11:44;2.17;;;1.60;;
12267;SDS011;6196;48.398;11.736;2023-04-29T15:14:11;1.63;;;1.53;;
12267;SDS011;6196;48.398;11.736;2023-04-29T15:16:38;1.93;;;1.77;;
12267;SDS011;6196;48.398;11.736;2023-04-29T15:19:05;1.47;;;1.37;;
12267;SDS011;6196;48.398;11.736;2023-04-29T15:21:31;1.60;;;1.50;;
12267;SDS011;6196;48.398;11.736;2023-04-29T15:23:59;1.70;;;1.60;;
12267;SDS011;6196;48.398;11.736;2023-04-29T15:26:27;1.53;;;1.43;;